Portada
METAR-TAF:

METAR-TAF

Aeroports :

Sevilla, Espanya

latitud: 37-25N, longitud: 005-54W, altitud: 34 m

Observació

L'informe es va fer fa 26 minuts, a les 09:30 UTC
Vent 5 kt del Nord, variant entre Nord-Oest i Est
Temperatura 28°C
Humitat 30%
Pressió 1017 hPa
Visibilitat 10 km o més
sense núvols per sota de 1500 mi sense presència de cumulonimbus.

METAR: LEZL 210930Z 35005KT 320V080 CAVOK 28/09 Q1017 NOSIG

Hora: 11:56 (09:56 UTC)

Pronòstic

L'informe es va fer fa 1 hora i 56 minuts, a les 08:00 UTC
Pronòstic vàlid del 21 a les 09 UTC al 22 a les 09 UTC
Vent 5 kt del Nord-Est
Visibilitat 10 km o més
sense núvols per sota de 1500 mi sense presència de cumulonimbus.
Evolucionant progressivament
l' 21 a les 15 UTC al 21 a les 18 UTC
Vent 10 kt del Sud-Oest
Evolucionant progressivament
l' 22 a les 00 UTC al 22 a les 02 UTC
Vent 3 kt amb direcció variable

TAF: LEZL 210800Z 2109/2209 04005KT CAVOK TX35/2116Z TN22/2205Z BECMG 2115/2118 22010KT BECMG 2200/2202 VRB03KT

Observacions i pronòstics meteorològics de més de 4000 aeroports (METAR i TAF).

Les estacions disponibles són els punts grocs i vermells al mapa.

Posi el ratolí al punt desitjat per veure el nom de l'estació.

Feu clic per veure les observacions i els pronòstics meteorològics.

Per canviar el mapa: feu clic els botons verds amb una creu de color negre per apropar; al botó verd amb un guió per allunyar la imatge; o en les fletxes verdes per a mapes adjacents.


METAR-TAF: